createdAt,value
2023-02-15T00:02:06.326Z,1.60
2023-02-15T00:04:48.034Z,1.60
2023-02-15T00:07:19.275Z,1.60
2023-02-15T00:09:48.668Z,1.60
2023-02-15T00:12:18.289Z,1.50
2023-02-15T00:14:49.833Z,1.60
2023-02-15T00:18:08.357Z,1.50
2023-02-15T00:20:37.441Z,1.50
2023-02-15T00:23:05.904Z,1.50
2023-02-15T00:25:34.375Z,1.50
2023-02-15T00:28:02.895Z,1.50
2023-02-15T00:30:33.574Z,1.60
2023-02-15T00:33:28.118Z,1.60
2023-02-15T00:35:59.733Z,1.60
2023-02-15T00:38:29.204Z,1.60
2023-02-15T00:40:59.992Z,1.50
2023-02-15T00:43:29.916Z,1.50
2023-02-15T00:46:00.490Z,1.50
2023-02-15T00:48:29.736Z,1.50
2023-02-15T00:51:00.503Z,1.60
2023-02-15T00:53:30.564Z,1.60
2023-02-15T00:56:00.064Z,1.60
2023-02-15T00:58:28.779Z,1.60
2023-02-15T01:00:57.242Z,1.50
2023-02-15T01:03:27.154Z,1.50
2023-02-15T01:05:55.657Z,1.50
2023-02-15T01:08:24.078Z,1.50
2023-02-15T01:10:52.664Z,1.50
2023-02-15T01:13:21.636Z,1.50
2023-02-15T01:15:56.257Z,1.50
2023-02-15T01:18:26.304Z,1.50
2023-02-15T01:20:55.349Z,1.50
2023-02-15T01:23:24.025Z,1.50
2023-02-15T01:25:52.550Z,1.60
2023-02-15T01:28:21.060Z,1.60
2023-02-15T01:30:49.824Z,1.50
2023-02-15T01:33:19.551Z,1.50
2023-02-15T01:35:49.544Z,1.60
2023-02-15T01:38:18.446Z,1.50
2023-02-15T01:40:47.039Z,1.50
2023-02-15T01:43:15.622Z,1.50
2023-02-15T01:45:47.500Z,1.50
2023-02-15T01:48:24.924Z,1.50
2023-02-15T01:50:59.663Z,1.50
2023-02-15T01:53:34.127Z,1.50
2023-02-15T01:56:08.830Z,1.50
2023-02-15T01:58:39.300Z,1.40
2023-02-15T02:01:10.979Z,1.40
2023-02-15T02:03:53.967Z,1.40
2023-02-15T02:06:26.190Z,1.50
2023-02-15T02:08:57.426Z,1.40
2023-02-15T02:11:26.073Z,1.40
2023-02-15T02:13:57.063Z,1.40
2023-02-15T02:16:34.287Z,1.40
2023-02-15T02:19:31.183Z,1.40
2023-02-15T02:22:43.228Z,1.50
2023-02-15T02:25:38.054Z,1.50
2023-02-15T02:28:52.301Z,1.50
2023-02-15T02:31:50.513Z,1.50
2023-02-15T02:34:31.247Z,1.50
2023-02-15T02:37:11.301Z,1.40
2023-02-15T02:39:52.182Z,1.50
2023-02-15T02:42:30.679Z,1.40
2023-02-15T02:45:07.610Z,1.50
2023-02-15T02:47:43.994Z,1.50
2023-02-15T02:50:18.064Z,1.40
2023-02-15T02:52:48.731Z,1.50
2023-02-15T02:55:24.703Z,1.50
2023-02-15T02:57:59.658Z,1.50
2023-02-15T03:00:33.877Z,1.40
2023-02-15T03:03:09.254Z,1.40
2023-02-15T03:05:45.518Z,1.40
2023-02-15T03:08:22.669Z,1.40
2023-02-15T03:10:54.789Z,1.50
2023-02-15T03:13:24.571Z,1.40
2023-02-15T03:16:12.428Z,1.50
2023-02-15T03:18:53.680Z,1.50
2023-02-15T03:21:30.016Z,1.60
2023-02-15T03:24:08.944Z,1.60
2023-02-15T03:26:41.268Z,1.60
2023-02-15T03:29:12.888Z,1.60
2023-02-15T03:31:47.944Z,1.60
2023-02-15T03:34:19.094Z,1.60
2023-02-15T03:36:58.222Z,1.60
2023-02-15T03:39:34.603Z,1.60
2023-02-15T03:42:14.411Z,1.60
2023-02-15T03:44:54.322Z,1.70
2023-02-15T03:47:29.648Z,1.70
2023-02-15T03:50:04.178Z,1.70
2023-02-15T03:52:36.591Z,1.70
2023-02-15T03:55:05.500Z,1.70
2023-02-15T03:58:10.479Z,1.80
2023-02-15T04:01:04.691Z,1.90
2023-02-15T04:03:41.448Z,1.90
2023-02-15T04:06:10.106Z,1.90
2023-02-15T04:08:57.430Z,1.90
2023-02-15T04:11:25.974Z,2.00
2023-02-15T04:13:57.698Z,2.00
2023-02-15T04:16:25.848Z,2.00
2023-02-15T04:19:11.859Z,2.00
2023-02-15T04:21:57.852Z,2.00
2023-02-15T04:24:44.816Z,2.00
2023-02-15T04:27:13.265Z,2.00
2023-02-15T04:29:41.984Z,2.10
2023-02-15T04:32:10.611Z,2.10
2023-02-15T04:34:39.110Z,2.10
2023-02-15T04:37:33.085Z,2.10
2023-02-15T04:40:03.645Z,2.10
2023-02-15T04:42:32.084Z,2.10
2023-02-15T04:45:00.542Z,2.10
2023-02-15T04:47:29.042Z,2.10
2023-02-15T04:49:58.251Z,2.10
2023-02-15T04:52:27.032Z,2.10
2023-02-15T04:54:55.535Z,2.10
2023-02-15T04:57:25.417Z,2.20
2023-02-15T04:59:53.999Z,2.10
2023-02-15T05:02:22.623Z,2.10
2023-02-15T05:04:51.091Z,2.10
2023-02-15T05:07:21.284Z,2.10
2023-02-15T05:09:49.884Z,2.10
2023-02-15T05:12:18.458Z,2.00
2023-02-15T05:14:48.265Z,2.00
2023-02-15T05:17:16.795Z,2.10
2023-02-15T05:19:45.283Z,2.00
2023-02-15T05:22:13.750Z,2.00
2023-02-15T05:24:59.598Z,2.00
2023-02-15T05:39:08.089Z,2.10
2023-02-15T05:41:36.720Z,2.20
2023-02-15T05:44:05.684Z,2.20
2023-02-15T05:46:34.247Z,2.20
2023-02-15T05:49:02.764Z,2.20
2023-02-15T05:51:31.205Z,2.20
2023-02-15T05:53:59.725Z,2.30
2023-02-15T05:56:29.478Z,2.30
2023-02-15T05:58:57.890Z,2.20
2023-02-15T06:01:26.307Z,2.30
2023-02-15T06:03:55.344Z,2.20
2023-02-15T06:06:24.002Z,2.20
2023-02-15T06:08:52.434Z,2.20
2023-02-15T06:11:20.872Z,2.10
2023-02-15T06:13:50.749Z,2.10
2023-02-15T06:16:19.195Z,2.10
2023-02-15T06:18:53.685Z,2.20
2023-02-15T06:21:22.358Z,2.10
2023-02-15T06:23:50.983Z,2.10
2023-02-15T06:26:19.473Z,2.10
2023-02-15T06:28:47.963Z,2.10
2023-02-15T06:31:18.010Z,2.10
2023-02-15T06:33:46.534Z,2.10
2023-02-15T06:36:14.928Z,2.10
2023-02-15T06:38:43.394Z,2.10
2023-02-15T06:41:11.919Z,2.10
2023-02-15T06:43:41.127Z,2.10
2023-02-15T06:46:09.623Z,2.20
2023-02-15T06:48:39.597Z,2.30
2023-02-15T06:51:08.059Z,2.40
2023-02-15T06:53:36.849Z,2.40
2023-02-15T06:56:14.072Z,2.40
2023-02-15T06:58:43.971Z,2.40
2023-02-15T07:01:12.484Z,2.40
2023-02-15T07:03:42.265Z,2.40
2023-02-15T07:06:11.697Z,2.50
2023-02-15T07:08:42.993Z,2.60
2023-02-15T07:11:29.078Z,2.60
2023-02-15T07:13:57.919Z,2.60
2023-02-15T07:16:26.473Z,2.70
2023-02-15T07:18:56.345Z,2.70
2023-02-15T07:21:24.749Z,2.80
2023-02-15T07:23:53.572Z,2.80
2023-02-15T07:26:22.071Z,2.90
2023-02-15T07:28:50.584Z,3.00
2023-02-15T07:31:19.494Z,3.00
2023-02-15T07:33:48.016Z,3.10
2023-02-15T07:36:17.818Z,3.20
2023-02-15T07:38:46.384Z,3.20
2023-02-15T07:41:17.275Z,3.30
2023-02-15T07:43:47.512Z,3.30
2023-02-15T07:46:18.903Z,3.30
2023-02-15T07:48:47.497Z,3.40
2023-02-15T07:51:18.139Z,3.40
2023-02-15T07:53:48.162Z,3.50
2023-02-15T07:56:17.856Z,3.60
2023-02-15T07:58:56.794Z,3.70
2023-02-15T08:01:28.899Z,3.70
2023-02-15T08:04:01.480Z,3.80
2023-02-15T08:06:34.729Z,3.80
2023-02-15T08:09:06.078Z,3.90
2023-02-15T08:11:38.703Z,3.90
2023-02-15T08:14:33.299Z,3.90
2023-02-15T08:17:51.423Z,3.90
2023-02-15T08:20:20.101Z,3.90
2023-02-15T08:22:49.876Z,4.00
2023-02-15T08:25:23.172Z,4.00
2023-02-15T08:27:52.326Z,4.10
2023-02-15T08:30:20.880Z,4.30
2023-02-15T08:32:49.343Z,4.40
2023-02-15T08:35:18.206Z,4.50
2023-02-15T08:37:46.623Z,4.50
2023-02-15T08:40:17.712Z,4.50
2023-02-15T08:42:46.202Z,4.60
2023-02-15T08:45:14.606Z,4.70
2023-02-15T08:47:43.116Z,5.00
2023-02-15T08:50:12.229Z,5.20
2023-02-15T08:52:40.652Z,5.30
2023-02-15T08:55:09.515Z,5.40
2023-02-15T08:57:39.649Z,5.30
2023-02-15T09:00:09.986Z,5.40
2023-02-15T09:02:38.970Z,5.50
2023-02-15T09:05:08.670Z,5.50
2023-02-15T09:07:37.174Z,5.50
2023-02-15T09:10:06.564Z,5.40
2023-02-15T09:12:34.971Z,5.40
2023-02-15T09:15:05.209Z,5.40
2023-02-15T09:17:33.667Z,5.40
2023-02-15T09:20:02.116Z,5.40
2023-02-15T09:22:34.462Z,5.50
2023-02-15T09:25:02.999Z,5.40
2023-02-15T09:27:32.197Z,5.30
2023-02-15T09:30:00.727Z,5.30
2023-02-15T09:32:30.680Z,5.30
2023-02-15T09:34:59.148Z,5.30
2023-02-15T09:37:27.618Z,5.30
2023-02-15T09:40:09.989Z,5.30
2023-02-15T09:43:32.163Z,5.30
2023-02-15T09:46:22.602Z,5.30
2023-02-15T09:48:58.158Z,5.30
2023-02-15T09:52:01.381Z,5.30
2023-02-15T09:54:47.661Z,5.30
2023-02-15T09:57:31.924Z,5.50
2023-02-15T10:00:12.064Z,5.50
2023-02-15T10:03:06.178Z,5.50
2023-02-15T10:05:51.605Z,5.60
2023-02-15T10:09:10.775Z,6.00
2023-02-15T10:11:57.318Z,6.20
2023-02-15T10:14:58.110Z,6.20
2023-02-15T10:17:46.137Z,6.20
2023-02-15T10:20:28.351Z,6.10
2023-02-15T10:23:30.834Z,6.00
2023-02-15T10:26:15.074Z,5.80
2023-02-15T10:28:50.426Z,5.80
2023-02-15T10:31:28.534Z,5.90
2023-02-15T10:34:19.737Z,6.00
2023-02-15T10:37:11.995Z,6.00
2023-02-15T10:39:56.884Z,6.00
2023-02-15T10:42:41.624Z,5.80
2023-02-15T10:45:26.061Z,5.70
2023-02-15T10:48:32.791Z,5.90
2023-02-15T10:51:05.212Z,6.00
2023-02-15T10:54:06.817Z,6.00
2023-02-15T10:56:49.303Z,6.10
2023-02-15T10:59:53.858Z,6.10
2023-02-15T11:02:33.894Z,6.10
2023-02-15T11:05:29.303Z,6.30
2023-02-15T11:08:02.629Z,6.40
2023-02-15T11:10:37.294Z,6.40
2023-02-15T11:13:13.789Z,6.40
2023-02-15T11:15:48.513Z,6.40
2023-02-15T11:18:27.077Z,6.50
2023-02-15T11:21:11.308Z,6.50
2023-02-15T11:23:46.579Z,6.50
2023-02-15T11:26:24.025Z,6.50
2023-02-15T11:28:59.444Z,6.60
2023-02-15T11:31:37.349Z,6.60
2023-02-15T11:34:17.946Z,6.70
2023-02-15T11:36:48.748Z,6.90
2023-02-15T11:39:20.303Z,6.90
2023-02-15T11:41:55.397Z,6.90
2023-02-15T11:44:34.346Z,6.90
2023-02-15T11:47:03.662Z,7.00
2023-02-15T11:49:35.987Z,7.10
2023-02-15T11:52:12.673Z,7.20
2023-02-15T11:54:46.442Z,7.30
2023-02-15T11:57:23.156Z,7.40
2023-02-15T12:00:00.318Z,7.50
2023-02-15T12:02:40.916Z,7.60
2023-02-15T12:05:17.024Z,7.60
2023-02-15T12:07:52.221Z,7.60
2023-02-15T12:10:27.740Z,7.50
2023-02-15T12:13:13.578Z,7.60
2023-02-15T12:15:47.567Z,7.60
2023-02-15T12:18:36.174Z,7.50
2023-02-15T12:21:32.517Z,7.50
2023-02-15T12:24:18.590Z,7.50
2023-02-15T12:26:58.971Z,7.70
2023-02-15T12:29:33.395Z,7.80
2023-02-15T12:32:31.778Z,7.90
2023-02-15T12:35:10.453Z,7.80
2023-02-15T12:37:39.385Z,7.80
2023-02-15T12:40:24.036Z,7.70
2023-02-15T12:42:52.603Z,7.80
2023-02-15T12:45:28.527Z,7.90
2023-02-15T12:48:23.605Z,8.00
2023-02-15T12:50:56.371Z,7.90
2023-02-15T12:53:34.828Z,8.00
2023-02-15T12:56:07.100Z,8.00
2023-02-15T12:58:36.659Z,8.00
2023-02-15T13:01:16.529Z,8.00
2023-02-15T13:04:23.298Z,8.00
2023-02-15T13:07:13.995Z,8.10
2023-02-15T13:09:42.765Z,8.00
2023-02-15T13:12:22.783Z,8.00
2023-02-15T13:14:55.741Z,7.90
2023-02-15T13:17:35.759Z,8.00
2023-02-15T13:20:18.837Z,8.00
2023-02-15T13:22:52.800Z,7.90
2023-02-15T13:25:25.066Z,7.90
2023-02-15T13:27:58.707Z,7.90
2023-02-15T13:30:33.164Z,7.90
2023-02-15T13:33:08.592Z,7.90
2023-02-15T13:35:46.668Z,7.80
2023-02-15T13:38:44.562Z,7.80
2023-02-15T13:41:19.815Z,7.70
2023-02-15T13:44:01.555Z,7.70
2023-02-15T13:47:00.108Z,7.70
2023-02-15T13:49:52.628Z,7.70
2023-02-15T13:52:26.065Z,7.70
2023-02-15T13:55:30.469Z,7.60
2023-02-15T13:58:43.083Z,7.40
2023-02-15T14:01:21.446Z,7.30
2023-02-15T14:04:16.250Z,7.30
2023-02-15T14:07:13.170Z,7.30
2023-02-15T14:10:02.477Z,7.20
2023-02-15T14:12:50.523Z,7.20
2023-02-15T14:15:37.496Z,7.10
2023-02-15T14:18:22.198Z,7.00
2023-02-15T14:21:08.171Z,7.00
2023-02-15T14:23:58.375Z,6.80
2023-02-15T14:27:01.780Z,6.70
2023-02-15T14:29:48.561Z,6.70
2023-02-15T14:32:44.625Z,6.60
2023-02-15T14:35:18.789Z,6.60
2023-02-15T14:38:16.681Z,6.60
2023-02-15T14:41:02.702Z,6.50
2023-02-15T14:43:53.468Z,6.40
2023-02-15T14:46:33.104Z,6.40
2023-02-15T14:49:13.038Z,6.50
2023-02-15T14:52:08.178Z,6.40
2023-02-15T14:55:00.507Z,6.30
2023-02-15T14:57:36.416Z,6.20
2023-02-15T15:00:40.324Z,6.20
2023-02-15T15:03:27.760Z,6.10
2023-02-15T15:06:03.251Z,6.00
2023-02-15T15:08:39.377Z,5.90
2023-02-15T15:11:48.730Z,5.80
2023-02-15T15:14:43.016Z,5.70
2023-02-15T15:17:38.930Z,5.70
2023-02-15T15:20:17.590Z,5.60
2023-02-15T15:22:46.530Z,5.40
2023-02-15T15:25:46.570Z,5.30
2023-02-15T15:28:57.786Z,5.20
2023-02-15T15:32:20.246Z,5.10
2023-02-15T15:36:02.762Z,5.00
2023-02-15T15:38:52.130Z,4.90
2023-02-15T15:41:31.485Z,4.80
2023-02-15T15:45:05.443Z,4.70
2023-02-15T15:48:06.930Z,4.60
2023-02-15T15:50:36.796Z,4.50
2023-02-15T15:53:07.503Z,4.40
2023-02-15T15:55:38.042Z,4.40
2023-02-15T15:58:09.344Z,4.30
2023-02-15T16:00:45.437Z,4.20
2023-02-15T16:03:22.224Z,4.10
2023-02-15T16:05:53.937Z,4.00
2023-02-15T16:08:33.873Z,4.00
2023-02-15T16:11:12.728Z,3.90
2023-02-15T16:13:43.274Z,3.80
2023-02-15T16:16:15.692Z,3.80
2023-02-15T16:18:45.911Z,3.80
2023-02-15T16:21:22.472Z,3.70
2023-02-15T16:24:14.905Z,3.70
2023-02-15T16:27:13.748Z,3.60
2023-02-15T16:29:42.245Z,3.40
2023-02-15T16:32:21.712Z,3.30
2023-02-15T16:35:01.028Z,3.20
2023-02-15T16:37:34.574Z,3.10
2023-02-15T16:40:03.465Z,3.00
2023-02-15T16:42:32.259Z,2.90
2023-02-15T16:45:09.294Z,2.80
2023-02-15T16:47:45.704Z,2.80
2023-02-15T16:50:25.108Z,2.70
2023-02-15T16:52:55.216Z,2.60
2023-02-15T16:55:27.308Z,2.60
2023-02-15T16:58:01.668Z,2.50
2023-02-15T17:00:36.665Z,2.40
2023-02-15T17:03:10.629Z,2.30
2023-02-15T17:05:48.400Z,2.30
2023-02-15T17:08:20.612Z,2.20
2023-02-15T17:11:18.661Z,2.10
2023-02-15T17:14:23.037Z,2.00
2023-02-15T17:16:55.579Z,1.90
2023-02-15T17:19:27.742Z,1.80
2023-02-15T17:22:00.992Z,1.80
2023-02-15T17:24:41.039Z,1.70
2023-02-15T17:27:18.329Z,1.60
2023-02-15T17:29:52.869Z,1.60
2023-02-15T17:32:25.014Z,1.60
2023-02-15T17:35:20.758Z,1.60
2023-02-15T17:37:51.752Z,1.50
2023-02-15T17:40:27.039Z,1.40
2023-02-15T17:42:55.772Z,1.40
2023-02-15T17:45:48.514Z,1.30
2023-02-15T17:48:23.712Z,1.30
2023-02-15T17:51:03.781Z,1.30
2023-02-15T17:53:35.032Z,1.30
2023-02-15T17:56:10.545Z,1.30
2023-02-15T17:58:40.426Z,1.30
2023-02-15T18:01:35.162Z,1.20
2023-02-15T18:07:31.514Z,1.20
2023-02-15T18:10:33.192Z,1.20
2023-02-15T18:13:01.669Z,1.20
2023-02-15T18:15:56.502Z,1.20
2023-02-15T18:18:47.911Z,1.20
2023-02-15T18:21:16.711Z,1.10
2023-02-15T18:23:45.222Z,1.10
2023-02-15T18:26:24.418Z,1.10
2023-02-15T18:28:53.285Z,1.10
2023-02-15T18:31:24.054Z,1.10
2023-02-15T18:34:05.202Z,1.10
2023-02-15T18:36:41.547Z,1.00
2023-02-15T18:39:26.805Z,1.00
2023-02-15T18:41:57.626Z,1.00
2023-02-15T18:44:27.262Z,1.00
2023-02-15T18:46:55.783Z,1.00
2023-02-15T18:49:24.269Z,0.90
2023-02-15T18:51:54.345Z,0.80
2023-02-15T18:54:26.410Z,0.80
2023-02-15T18:57:21.629Z,0.80
2023-02-15T18:59:50.104Z,0.70
2023-02-15T19:02:20.720Z,0.80
2023-02-15T19:04:49.189Z,0.70
2023-02-15T19:07:22.103Z,0.70
2023-02-15T19:09:56.744Z,0.60
2023-02-15T19:12:27.258Z,0.60
2023-02-15T19:14:56.793Z,0.60
2023-02-15T19:17:38.199Z,0.60
2023-02-15T19:20:08.422Z,0.50
2023-02-15T19:22:37.120Z,0.50
2023-02-15T19:25:07.170Z,0.50
2023-02-15T19:27:38.039Z,0.50
2023-02-15T19:30:17.447Z,0.40
2023-02-15T19:32:46.311Z,0.50
2023-02-15T19:35:21.935Z,0.50
2023-02-15T19:37:53.726Z,0.50
2023-02-15T19:40:25.523Z,0.50
2023-02-15T19:42:55.767Z,0.50
2023-02-15T19:45:27.022Z,0.50
2023-02-15T19:47:55.820Z,0.50
2023-02-15T19:50:27.430Z,0.50
2023-02-15T19:52:56.135Z,0.40
2023-02-15T19:55:27.510Z,0.40
2023-02-15T19:58:00.189Z,0.40
2023-02-15T20:00:32.080Z,0.30
2023-02-15T20:03:01.836Z,0.30
2023-02-15T20:05:34.266Z,0.30
2023-02-15T20:08:04.081Z,0.20
2023-02-15T20:10:33.460Z,0.20
2023-02-15T20:13:03.833Z,0.20
2023-02-15T20:15:35.795Z,0.20
2023-02-15T20:18:06.851Z,0.20
2023-02-15T20:20:42.823Z,0.20
2023-02-15T20:23:20.515Z,0.30
2023-02-15T20:25:49.519Z,0.30
2023-02-15T20:28:22.439Z,0.30
2023-02-15T20:30:52.682Z,0.30
2023-02-15T20:33:22.820Z,0.30
2023-02-15T20:35:52.676Z,0.20
2023-02-15T20:38:25.513Z,0.20
2023-02-15T20:41:13.430Z,0.10
2023-02-15T20:43:43.651Z,0.10
2023-02-15T20:46:12.518Z,0.20
2023-02-15T20:48:46.487Z,0.00
2023-02-15T20:51:19.178Z,0.10
2023-02-15T20:53:48.488Z,0.00
2023-02-15T20:56:21.272Z,-0.10
2023-02-15T20:58:51.885Z,-0.10
2023-02-15T21:01:21.196Z,-0.10
2023-02-15T21:03:50.251Z,-0.10
2023-02-15T21:06:19.073Z,-0.10
2023-02-15T21:08:47.697Z,-0.20
2023-02-15T21:11:22.218Z,-0.20
2023-02-15T21:13:52.685Z,-0.10
2023-02-15T21:16:34.635Z,-0.10
2023-02-15T21:19:03.234Z,-0.20
2023-02-15T21:21:34.993Z,-0.10
2023-02-15T21:24:03.495Z,0.00
2023-02-15T21:26:31.934Z,0.00
2023-02-15T21:29:03.842Z,0.10
2023-02-15T21:31:33.463Z,0.10
2023-02-15T21:34:02.135Z,0.10
2023-02-15T21:36:30.677Z,0.20
2023-02-15T21:38:59.142Z,0.30
2023-02-15T21:41:46.787Z,0.30
2023-02-15T21:44:40.492Z,0.30
2023-02-15T21:47:38.205Z,0.20
2023-02-15T21:50:23.423Z,0.10
2023-02-15T21:52:52.026Z,0.00
2023-02-15T21:55:20.544Z,0.00
2023-02-15T21:57:49.062Z,-0.10
2023-02-15T22:00:22.804Z,-0.10
2023-02-15T22:02:55.514Z,0.10
2023-02-15T22:05:28.200Z,0.10
2023-02-15T22:07:57.270Z,0.00
2023-02-15T22:10:29.611Z,0.00
2023-02-15T22:12:58.480Z,-0.10
2023-02-15T22:15:36.944Z,0.10
2023-02-15T22:18:07.062Z,-0.10
2023-02-15T22:20:54.614Z,-0.10
2023-02-15T22:23:24.060Z,-0.10
2023-02-15T22:25:56.095Z,-0.10
2023-02-15T22:28:32.404Z,-0.10
2023-02-15T22:31:03.229Z,-0.20
2023-02-15T22:33:35.455Z,-0.30
2023-02-15T22:36:04.654Z,-0.30
2023-02-15T22:38:33.278Z,-0.20
2023-02-15T22:41:06.225Z,-0.30
2023-02-15T22:43:41.538Z,-0.30
2023-02-15T22:46:18.142Z,-0.30
2023-02-15T22:48:51.677Z,-0.40
2023-02-15T22:51:23.417Z,-0.30
2023-02-15T22:53:53.935Z,-0.30
2023-02-15T22:56:28.768Z,-0.30
2023-02-15T22:59:26.214Z,-0.40
2023-02-15T23:01:57.530Z,-0.40
2023-02-15T23:04:29.166Z,-0.40
2023-02-15T23:07:00.657Z,-0.40
2023-02-15T23:09:29.167Z,-0.40
2023-02-15T23:11:58.819Z,-0.50
2023-02-15T23:14:32.138Z,-0.50
2023-02-15T23:17:02.233Z,-0.50
2023-02-15T23:19:30.745Z,-0.50
2023-02-15T23:21:59.196Z,-0.50
2023-02-15T23:24:31.300Z,-0.50
2023-02-15T23:27:19.757Z,-0.50
2023-02-15T23:30:15.814Z,-0.50
2023-02-15T23:32:45.764Z,-0.60
2023-02-15T23:35:16.759Z,-0.70
2023-02-15T23:37:45.777Z,-0.70
2023-02-15T23:43:27.777Z,-0.70
2023-02-15T23:45:56.203Z,-0.70
2023-02-15T23:48:35.037Z,-0.80
2023-02-15T23:51:04.095Z,-0.80
2023-02-15T23:53:34.145Z,-0.80
2023-02-15T23:56:03.358Z,-0.80
2023-02-15T23:58:40.316Z,-0.90
